createdAt,value
2018-12-19T00:01:09.456Z,6.10
2018-12-19T00:03:36.940Z,6.00
2018-12-19T00:06:04.403Z,6.10
2018-12-19T00:08:31.890Z,6.10
2018-12-19T00:13:33.115Z,6.00
2018-12-19T00:16:00.579Z,6.00
2018-12-19T00:18:28.533Z,6.20
2018-12-19T00:20:56.007Z,6.20
2018-12-19T00:23:23.470Z,6.00
2018-12-19T00:25:50.943Z,5.90
2018-12-19T00:28:18.395Z,6.00
2018-12-19T00:30:45.872Z,5.90
2018-12-19T00:33:13.335Z,6.10
2018-12-19T00:35:40.812Z,6.40
2018-12-19T00:38:08.271Z,6.60
2018-12-19T00:40:35.757Z,6.60
2018-12-19T00:43:03.287Z,6.40
2018-12-19T00:45:30.782Z,6.40
2018-12-19T00:47:58.234Z,6.70
2018-12-19T00:50:25.728Z,6.80
2018-12-19T00:52:53.184Z,6.70
2018-12-19T00:55:20.647Z,6.70
2018-12-19T00:57:48.135Z,6.80
2018-12-19T01:00:15.603Z,6.80
2018-12-19T01:02:43.085Z,6.80
2018-12-19T01:05:10.542Z,6.70
2018-12-19T01:07:38.022Z,6.80
2018-12-19T01:10:05.830Z,7.00
2018-12-19T01:12:33.321Z,6.90
2018-12-19T01:15:00.779Z,6.90
2018-12-19T01:17:28.560Z,5.90
2018-12-19T01:19:56.020Z,7.10
2018-12-19T01:22:23.508Z,7.20
2018-12-19T01:24:50.977Z,7.10
2018-12-19T01:27:18.471Z,7.10
2018-12-19T01:29:45.939Z,7.10
2018-12-19T01:32:13.403Z,7.10
2018-12-19T01:34:40.906Z,7.20
2018-12-19T01:37:08.387Z,7.20
2018-12-19T01:39:35.869Z,7.10
2018-12-19T01:42:03.363Z,7.20
2018-12-19T01:44:30.857Z,7.20
2018-12-19T01:46:58.348Z,7.20
2018-12-19T01:49:25.840Z,7.20
2018-12-19T01:51:53.307Z,7.20
2018-12-19T01:54:20.794Z,7.30
2018-12-19T01:56:48.247Z,7.30
2018-12-19T01:59:15.739Z,7.30
2018-12-19T02:01:43.237Z,7.40
2018-12-19T02:04:10.721Z,7.50
2018-12-19T02:06:38.430Z,7.50
2018-12-19T02:09:06.344Z,7.40
2018-12-19T02:11:33.832Z,7.30
2018-12-19T02:14:01.291Z,7.40
2018-12-19T02:16:28.847Z,7.40
2018-12-19T02:18:56.337Z,7.40
2018-12-19T02:21:23.809Z,7.40
2018-12-19T02:23:51.281Z,7.40
2018-12-19T02:26:18.766Z,7.30
2018-12-19T02:28:46.245Z,7.40
2018-12-19T02:31:13.725Z,7.40
2018-12-19T02:33:41.228Z,7.40
2018-12-19T02:36:08.707Z,7.40
2018-12-19T02:38:36.215Z,7.30
2018-12-19T02:41:03.703Z,7.30
2018-12-19T02:43:31.196Z,7.30
2018-12-19T02:45:58.664Z,7.20
2018-12-19T02:48:26.154Z,7.20
2018-12-19T02:50:53.651Z,7.20
2018-12-19T02:53:21.128Z,7.20
2018-12-19T02:55:48.591Z,7.20
2018-12-19T02:58:16.076Z,7.20
2018-12-19T03:00:43.563Z,7.20
2018-12-19T03:03:11.037Z,7.20
2018-12-19T03:05:38.502Z,7.20
2018-12-19T03:08:05.984Z,7.20
2018-12-19T03:10:33.448Z,7.20
2018-12-19T03:13:00.920Z,7.20
2018-12-19T03:15:28.383Z,7.20
2018-12-19T03:17:55.868Z,7.20
2018-12-19T03:20:23.332Z,7.20
2018-12-19T03:22:50.791Z,7.20
2018-12-19T03:25:18.277Z,7.20
2018-12-19T03:27:45.760Z,7.20
2018-12-19T03:30:13.232Z,7.20
2018-12-19T03:32:40.705Z,7.30
2018-12-19T03:35:08.162Z,7.30
2018-12-19T03:37:35.631Z,7.30
2018-12-19T03:40:03.483Z,7.40
2018-12-19T03:42:30.979Z,7.30
2018-12-19T03:44:58.459Z,7.40
2018-12-19T03:47:25.927Z,7.30
2018-12-19T03:49:53.491Z,7.40
2018-12-19T03:52:20.952Z,7.40
2018-12-19T03:54:48.428Z,7.30
2018-12-19T03:57:15.901Z,7.40
2018-12-19T03:59:43.393Z,7.40
2018-12-19T04:02:10.871Z,7.50
2018-12-19T04:04:38.344Z,7.50
2018-12-19T04:07:05.838Z,7.50
2018-12-19T04:09:33.320Z,7.50
2018-12-19T04:12:00.771Z,7.60
2018-12-19T04:14:28.247Z,7.60
2018-12-19T04:16:55.717Z,7.60
2018-12-19T04:19:23.200Z,7.60
2018-12-19T04:21:50.661Z,7.70
2018-12-19T04:24:18.151Z,7.70
2018-12-19T04:26:45.616Z,7.70
2018-12-19T04:29:13.093Z,7.60
2018-12-19T04:31:40.580Z,7.70
2018-12-19T04:34:08.133Z,7.60
2018-12-19T04:36:35.608Z,7.70
2018-12-19T04:39:05.324Z,7.60
2018-12-19T04:41:32.827Z,7.60
2018-12-19T04:44:00.295Z,7.60
2018-12-19T04:46:27.819Z,7.60
2018-12-19T04:48:55.294Z,7.60
2018-12-19T04:51:22.775Z,7.60
2018-12-19T04:53:50.257Z,7.60
2018-12-19T04:56:17.744Z,7.60
2018-12-19T04:58:45.224Z,7.70
2018-12-19T05:01:12.731Z,7.70
2018-12-19T05:03:40.187Z,7.70
2018-12-19T05:06:07.648Z,7.70
2018-12-19T05:08:35.125Z,7.70
2018-12-19T05:11:02.595Z,7.70
2018-12-19T05:13:30.069Z,7.70
2018-12-19T05:15:57.533Z,7.70
2018-12-19T05:18:25.003Z,7.70
2018-12-19T05:20:52.456Z,7.80
2018-12-19T05:23:19.950Z,7.80
2018-12-19T05:25:47.408Z,7.60
2018-12-19T05:28:14.879Z,7.50
2018-12-19T05:30:42.344Z,7.30
2018-12-19T05:33:09.810Z,7.30
2018-12-19T05:35:37.280Z,7.30
2018-12-19T05:38:04.761Z,7.30
2018-12-19T05:40:32.223Z,7.40
2018-12-19T05:42:59.687Z,7.40
2018-12-19T05:45:27.148Z,7.40
2018-12-19T05:47:54.628Z,7.50
2018-12-19T05:50:22.465Z,7.50
2018-12-19T05:52:49.936Z,7.50
2018-12-19T05:55:17.397Z,7.60
2018-12-19T05:57:45.362Z,7.60
2018-12-19T06:00:13.012Z,7.50
2018-12-19T06:02:40.484Z,7.40
2018-12-19T06:05:08.036Z,7.30
2018-12-19T06:07:35.510Z,7.30
2018-12-19T06:10:03.067Z,7.30
2018-12-19T06:12:30.540Z,7.30
2018-12-19T06:14:58.017Z,7.20
2018-12-19T06:17:25.481Z,7.20
2018-12-19T06:19:52.961Z,7.20
2018-12-19T06:22:20.419Z,7.20
2018-12-19T06:24:47.916Z,7.20
2018-12-19T06:27:15.387Z,7.30
2018-12-19T06:29:42.871Z,7.20
2018-12-19T06:32:10.335Z,7.20
2018-12-19T06:34:37.931Z,7.30
2018-12-19T06:37:26.102Z,7.30
2018-12-19T06:39:53.598Z,7.40
2018-12-19T06:42:21.051Z,7.40
2018-12-19T06:44:48.536Z,7.50
2018-12-19T06:47:15.987Z,7.50
2018-12-19T06:49:43.571Z,7.50
2018-12-19T06:52:11.153Z,7.50
2018-12-19T06:54:38.628Z,7.60
2018-12-19T06:57:06.087Z,7.60
2018-12-19T06:59:33.579Z,7.70
2018-12-19T07:02:01.041Z,7.70
2018-12-19T07:04:28.512Z,7.70
2018-12-19T07:06:55.974Z,7.80
2018-12-19T07:09:23.650Z,7.80
2018-12-19T07:11:51.117Z,7.80
2018-12-19T07:14:18.617Z,7.80
2018-12-19T07:16:46.077Z,7.70
2018-12-19T07:19:13.540Z,7.80
2018-12-19T07:21:41.020Z,7.80
2018-12-19T07:24:08.483Z,7.70
2018-12-19T07:26:35.995Z,7.80
2018-12-19T07:29:03.467Z,7.70
2018-12-19T07:31:30.947Z,7.70
2018-12-19T07:33:58.434Z,7.70
2018-12-19T07:36:25.905Z,7.70
2018-12-19T07:38:53.364Z,7.70
2018-12-19T07:41:20.894Z,7.80
2018-12-19T07:43:48.415Z,7.70
2018-12-19T07:46:19.789Z,7.70
2018-12-19T07:48:45.437Z,7.70
2018-12-19T07:51:12.902Z,7.60
2018-12-19T07:53:40.378Z,7.60
2018-12-19T07:56:08.039Z,7.60
2018-12-19T07:58:35.604Z,7.50
2018-12-19T08:01:03.075Z,7.70
2018-12-19T08:03:30.543Z,7.50
2018-12-19T08:05:58.021Z,7.40
2018-12-19T08:08:25.484Z,7.40
2018-12-19T08:10:52.971Z,7.30
2018-12-19T08:13:20.431Z,7.30
2018-12-19T08:15:47.925Z,7.40
2018-12-19T08:18:15.393Z,7.50
2018-12-19T08:20:42.854Z,7.60
2018-12-19T08:23:10.329Z,7.80
2018-12-19T08:25:37.823Z,7.90
2018-12-19T08:28:05.299Z,8.00
2018-12-19T08:30:32.775Z,8.10
2018-12-19T08:33:00.243Z,8.10
2018-12-19T08:35:27.698Z,8.20
2018-12-19T08:37:55.189Z,8.20
2018-12-19T08:40:22.648Z,8.30
2018-12-19T08:42:50.129Z,8.20
2018-12-19T08:45:17.759Z,8.10
2018-12-19T08:47:45.236Z,8.00
2018-12-19T08:50:12.734Z,7.90
2018-12-19T08:52:40.235Z,7.90
2018-12-19T08:55:07.704Z,7.90
2018-12-19T08:57:35.189Z,7.80
2018-12-19T09:00:02.934Z,7.90
2018-12-19T09:02:30.403Z,8.00
2018-12-19T09:04:57.875Z,8.00
2018-12-19T09:07:25.363Z,8.00
2018-12-19T09:09:52.829Z,8.00
2018-12-19T09:12:20.299Z,8.10
2018-12-19T09:14:47.775Z,8.00
2018-12-19T09:17:15.309Z,8.00
2018-12-19T09:19:42.975Z,8.10
2018-12-19T09:22:10.737Z,8.30
2018-12-19T09:24:38.196Z,8.30
2018-12-19T09:27:05.689Z,8.30
2018-12-19T09:29:33.169Z,8.50
2018-12-19T09:32:00.616Z,8.50
2018-12-19T09:34:28.101Z,8.50
2018-12-19T09:36:55.568Z,8.50
2018-12-19T09:39:23.043Z,8.50
2018-12-19T09:41:50.604Z,8.60
2018-12-19T09:44:18.068Z,8.70
2018-12-19T09:46:45.540Z,8.70
2018-12-19T09:49:14.092Z,8.80
2018-12-19T09:51:41.608Z,8.70
2018-12-19T09:54:09.088Z,8.80
2018-12-19T09:56:36.581Z,8.70
2018-12-19T09:59:04.062Z,8.90
2018-12-19T10:01:31.526Z,8.90
2018-12-19T10:03:59.006Z,8.80
2018-12-19T10:06:26.467Z,8.90
2018-12-19T10:08:53.964Z,8.90
2018-12-19T10:11:21.415Z,9.00
2018-12-19T10:13:48.896Z,9.00
2018-12-19T10:16:16.388Z,9.10
2018-12-19T10:18:44.457Z,9.10
2018-12-19T10:21:11.915Z,9.10
2018-12-19T10:23:39.381Z,9.20
2018-12-19T10:26:13.077Z,9.20
2018-12-19T10:28:40.536Z,9.30
2018-12-19T10:31:08.015Z,9.20
2018-12-19T10:33:35.500Z,9.20
2018-12-19T10:36:03.063Z,9.30
2018-12-19T10:38:30.579Z,9.30
2018-12-19T10:40:58.075Z,9.30
2018-12-19T10:43:25.528Z,9.30
2018-12-19T10:45:53.036Z,9.40
2018-12-19T10:48:20.536Z,9.40
2018-12-19T10:50:48.079Z,9.30
2018-12-19T10:53:15.561Z,9.40
2018-12-19T10:55:43.038Z,9.40
2018-12-19T10:58:10.536Z,9.50
2018-12-19T11:00:43.713Z,9.50
2018-12-19T11:03:11.179Z,9.60
2018-12-19T11:05:38.672Z,9.60
2018-12-19T11:08:06.165Z,9.60
2018-12-19T11:10:33.627Z,9.70
2018-12-19T11:13:01.136Z,9.70
2018-12-19T11:15:28.589Z,9.90
2018-12-19T11:17:56.076Z,9.70
2018-12-19T11:20:23.566Z,9.70
2018-12-19T11:22:51.045Z,9.60
2018-12-19T11:25:18.504Z,9.50
2018-12-19T11:27:45.987Z,9.50
2018-12-19T11:30:13.444Z,9.50
2018-12-19T11:32:40.931Z,9.60
2018-12-19T11:35:08.384Z,9.70
2018-12-19T11:37:35.861Z,9.70
2018-12-19T11:40:05.175Z,9.70
2018-12-19T11:42:32.643Z,9.80
2018-12-19T11:45:00.117Z,9.80
2018-12-19T11:47:27.595Z,9.80
2018-12-19T11:49:55.141Z,9.80
2018-12-19T11:52:22.606Z,9.80
2018-12-19T11:54:50.081Z,9.80
2018-12-19T11:57:17.621Z,9.80
2018-12-19T11:59:45.105Z,9.80
2018-12-19T12:02:12.584Z,9.80
2018-12-19T12:04:40.055Z,9.80
2018-12-19T12:07:07.528Z,9.80
2018-12-19T12:09:35.013Z,9.80
2018-12-19T12:12:02.470Z,9.70
2018-12-19T12:14:29.938Z,9.80
2018-12-19T12:16:57.399Z,9.90
2018-12-19T12:19:24.875Z,9.90
2018-12-19T12:21:52.346Z,10.10
2018-12-19T12:24:19.820Z,10.20
2018-12-19T12:26:47.283Z,10.30
2018-12-19T12:29:14.759Z,10.40
2018-12-19T12:31:42.240Z,10.40
2018-12-19T12:34:09.711Z,10.70
2018-12-19T12:36:37.175Z,10.50
2018-12-19T12:39:06.009Z,10.90
2018-12-19T12:41:33.485Z,10.80
2018-12-19T12:44:00.966Z,10.80
2018-12-19T12:46:28.439Z,10.80
2018-12-19T12:48:55.936Z,10.50
2018-12-19T12:51:23.405Z,10.50
2018-12-19T12:53:50.888Z,10.40
2018-12-19T12:56:18.356Z,10.30
2018-12-19T12:58:45.836Z,10.10
2018-12-19T13:01:13.315Z,10.20
2018-12-19T13:03:40.914Z,10.20
2018-12-19T13:06:08.384Z,10.10
2018-12-19T13:08:35.848Z,10.20
2018-12-19T13:11:03.589Z,10.20
2018-12-19T13:13:31.047Z,10.20
2018-12-19T13:15:58.521Z,10.20
2018-12-19T13:18:25.979Z,10.20
2018-12-19T13:20:53.484Z,10.20
2018-12-19T13:23:20.952Z,10.20
2018-12-19T13:25:48.432Z,10.30
2018-12-19T13:28:15.979Z,10.20
2018-12-19T13:30:43.447Z,10.00
2018-12-19T13:33:10.919Z,9.90
2018-12-19T13:35:38.397Z,9.90
2018-12-19T13:38:05.860Z,10.00
2018-12-19T13:40:33.368Z,9.90
2018-12-19T13:43:00.832Z,9.90
2018-12-19T13:45:28.302Z,9.90
2018-12-19T13:47:55.758Z,9.90
2018-12-19T13:50:23.242Z,9.90
2018-12-19T13:52:50.703Z,9.80
2018-12-19T13:55:18.187Z,9.70
2018-12-19T13:57:45.649Z,9.60
2018-12-19T14:00:13.107Z,9.60
2018-12-19T14:02:40.601Z,9.60
2018-12-19T14:05:08.208Z,9.70
2018-12-19T14:07:35.683Z,9.70
2018-12-19T14:10:03.431Z,9.80
2018-12-19T14:12:30.909Z,9.80
2018-12-19T14:14:58.371Z,9.90
2018-12-19T14:17:25.848Z,9.90
2018-12-19T14:19:53.308Z,9.90
2018-12-19T14:22:21.668Z,9.90
2018-12-19T14:24:49.143Z,9.90
2018-12-19T14:27:16.625Z,10.00
2018-12-19T14:29:44.087Z,10.00
2018-12-19T14:32:11.567Z,9.90
2018-12-19T14:34:39.051Z,9.80
2018-12-19T14:37:06.528Z,9.80
2018-12-19T14:39:33.998Z,9.70
2018-12-19T14:42:01.490Z,9.70
2018-12-19T14:44:28.948Z,9.70
2018-12-19T14:49:30.281Z,9.60
2018-12-19T14:51:57.843Z,9.60
2018-12-19T14:54:25.299Z,9.50
2018-12-19T14:56:52.781Z,9.50
2018-12-19T14:59:20.266Z,9.40
2018-12-19T15:01:47.798Z,9.40
2018-12-19T15:04:15.298Z,9.30
2018-12-19T15:06:42.791Z,9.20
2018-12-19T15:09:10.336Z,9.10
2018-12-19T15:11:37.795Z,9.00
2018-12-19T15:14:05.271Z,8.80
2018-12-19T15:16:32.816Z,8.80
2018-12-19T15:19:00.300Z,8.70
2018-12-19T15:21:27.755Z,8.60
2018-12-19T15:23:55.240Z,8.50
2018-12-19T15:26:22.708Z,8.50
2018-12-19T15:28:50.193Z,8.50
2018-12-19T15:31:17.648Z,8.40
2018-12-19T15:33:45.115Z,8.40
2018-12-19T15:36:12.847Z,8.30
2018-12-19T15:38:40.322Z,8.30
2018-12-19T15:41:07.793Z,8.40
2018-12-19T15:43:35.283Z,8.40
2018-12-19T15:46:02.740Z,8.40
2018-12-19T15:48:30.215Z,8.40
2018-12-19T15:50:57.689Z,8.40
2018-12-19T15:53:25.255Z,8.40
2018-12-19T15:55:52.758Z,8.40
2018-12-19T15:58:20.246Z,8.40
2018-12-19T16:00:47.732Z,8.20
2018-12-19T16:03:15.215Z,8.10
2018-12-19T16:05:42.717Z,7.90
2018-12-19T16:08:10.211Z,7.90
2018-12-19T16:10:37.680Z,7.80
2018-12-19T16:13:05.148Z,7.70
2018-12-19T16:15:32.622Z,7.70
2018-12-19T16:18:00.104Z,7.70
2018-12-19T16:20:27.568Z,7.70
2018-12-19T16:22:55.031Z,7.70
2018-12-19T16:25:22.840Z,7.70
2018-12-19T16:27:50.300Z,7.70
2018-12-19T16:30:17.770Z,7.60
2018-12-19T16:32:45.241Z,7.70
2018-12-19T16:35:12.711Z,7.60
2018-12-19T16:37:40.211Z,7.60
2018-12-19T16:40:07.846Z,7.60
2018-12-19T16:42:35.324Z,7.50
2018-12-19T16:45:02.976Z,7.50
2018-12-19T16:47:30.437Z,7.50
2018-12-19T16:49:57.906Z,7.60
2018-12-19T16:52:25.368Z,7.60
2018-12-19T16:54:52.852Z,7.60
2018-12-19T16:57:20.313Z,7.60
2018-12-19T16:59:47.796Z,7.70
2018-12-19T17:02:15.260Z,7.70
2018-12-19T17:04:42.725Z,7.70
2018-12-19T17:07:10.195Z,7.80
2018-12-19T17:09:37.663Z,7.80
2018-12-19T17:12:05.151Z,7.70
2018-12-19T17:14:32.611Z,7.70
2018-12-19T17:17:00.095Z,7.50
2018-12-19T17:19:27.638Z,7.40
2018-12-19T17:21:55.154Z,7.40
2018-12-19T17:24:24.607Z,7.30
2018-12-19T17:26:52.093Z,7.20
2018-12-19T17:29:19.543Z,7.10
2018-12-19T17:31:47.028Z,7.00
2018-12-19T17:34:14.497Z,7.00
2018-12-19T17:36:41.966Z,6.80
2018-12-19T17:39:09.423Z,6.80
2018-12-19T17:41:36.900Z,6.60
2018-12-19T17:44:04.360Z,6.60
2018-12-19T17:46:31.852Z,6.60
2018-12-19T17:48:59.325Z,6.60
2018-12-19T17:51:26.795Z,6.60
2018-12-19T17:53:54.261Z,6.50
2018-12-19T17:56:21.735Z,6.40
2018-12-19T17:58:49.225Z,6.30
2018-12-19T18:01:16.698Z,6.30
2018-12-19T18:03:44.172Z,6.20
2018-12-19T18:06:11.639Z,6.20
2018-12-19T18:08:39.117Z,6.10
2018-12-19T18:11:06.571Z,6.10
2018-12-19T18:13:34.049Z,6.10
2018-12-19T18:16:01.516Z,5.90
2018-12-19T18:18:28.995Z,5.80
2018-12-19T18:20:56.463Z,5.90
2018-12-19T18:23:23.943Z,5.90
2018-12-19T18:25:51.409Z,5.80
2018-12-19T18:28:18.892Z,5.70
2018-12-19T18:30:46.348Z,5.70
2018-12-19T18:33:13.823Z,5.50
2018-12-19T18:35:41.592Z,5.50
2018-12-19T18:38:09.075Z,5.40
2018-12-19T18:40:36.530Z,5.30
2018-12-19T18:43:04.016Z,5.40
2018-12-19T18:45:31.555Z,5.40
2018-12-19T18:47:59.035Z,5.40
2018-12-19T18:50:26.491Z,5.50
2018-12-19T18:52:53.967Z,5.30
2018-12-19T18:55:21.447Z,5.30
2018-12-19T18:57:48.916Z,5.30
2018-12-19T19:00:19.387Z,5.30
2018-12-19T19:02:46.950Z,5.30
2018-12-19T19:05:14.533Z,5.40
2018-12-19T19:07:42.075Z,5.50
2018-12-19T19:10:09.705Z,5.50
2018-12-19T19:12:37.175Z,5.50
2018-12-19T19:15:05.002Z,5.60
2018-12-19T19:17:32.478Z,5.60
2018-12-19T19:19:59.955Z,5.60
2018-12-19T19:22:27.429Z,5.70
2018-12-19T19:24:54.912Z,5.60
2018-12-19T19:27:22.380Z,5.60
2018-12-19T19:29:49.861Z,5.50
2018-12-19T19:32:18.783Z,5.70
2018-12-19T19:34:46.454Z,5.70
2018-12-19T19:37:14.020Z,5.80
2018-12-19T19:39:41.673Z,6.00
2018-12-19T19:42:09.134Z,6.00
2018-12-19T19:44:36.596Z,6.10
2018-12-19T19:47:04.075Z,6.20
2018-12-19T19:49:31.541Z,6.00
2018-12-19T19:51:59.015Z,6.00
2018-12-19T19:54:26.485Z,5.90
2018-12-19T19:56:54.026Z,5.90
2018-12-19T19:59:21.554Z,5.80
2018-12-19T20:01:49.032Z,5.80
2018-12-19T20:04:16.499Z,5.70
2018-12-19T20:06:43.976Z,5.60
2018-12-19T20:09:11.446Z,5.50
2018-12-19T20:11:38.926Z,5.40
2018-12-19T20:14:06.473Z,5.30
2018-12-19T20:16:35.919Z,5.20
2018-12-19T20:19:03.388Z,5.10
2018-12-19T20:21:30.864Z,5.10
2018-12-19T20:23:58.337Z,4.90
2018-12-19T20:26:25.812Z,4.90
2018-12-19T20:28:53.333Z,4.70
2018-12-19T20:31:20.813Z,4.60
2018-12-19T20:33:48.305Z,4.40
2018-12-19T20:36:15.907Z,4.30
2018-12-19T20:38:43.397Z,4.60
2018-12-19T20:41:10.905Z,4.60
2018-12-19T20:43:40.117Z,4.40
2018-12-19T20:46:07.927Z,4.30
2018-12-19T20:48:35.609Z,4.10
2018-12-19T20:51:03.102Z,3.90
2018-12-19T20:53:30.598Z,3.80
2018-12-19T20:56:03.754Z,3.70
2018-12-19T20:58:27.712Z,3.60
2018-12-19T21:00:55.326Z,3.50
2018-12-19T21:03:22.874Z,3.40
2018-12-19T21:05:50.374Z,3.30
2018-12-19T21:08:17.885Z,3.30
2018-12-19T21:10:45.591Z,3.20
2018-12-19T21:13:13.068Z,3.10
2018-12-19T21:15:40.611Z,3.10
2018-12-19T21:18:13.591Z,3.10
2018-12-19T21:20:41.064Z,3.20
2018-12-19T21:23:08.548Z,3.20
2018-12-19T21:25:36.017Z,3.30
2018-12-19T21:28:03.576Z,3.40
2018-12-19T21:30:31.048Z,3.40
2018-12-19T21:32:58.507Z,3.40
2018-12-19T21:35:26.000Z,3.50
2018-12-19T21:37:53.468Z,3.40
2018-12-19T21:40:20.995Z,3.30
2018-12-19T21:42:48.651Z,3.20
2018-12-19T21:45:16.253Z,3.10
2018-12-19T21:47:43.812Z,3.10
2018-12-19T21:50:11.328Z,3.00
2018-12-19T21:52:38.893Z,3.00
2018-12-19T21:55:06.476Z,3.10
2018-12-19T21:57:33.959Z,3.00
2018-12-19T22:00:01.555Z,3.00
2018-12-19T22:02:29.031Z,3.20
2018-12-19T22:04:56.755Z,1.10
2018-12-19T22:07:24.362Z,3.40
2018-12-19T22:09:51.892Z,3.50
2018-12-19T22:12:19.362Z,4.20
2018-12-19T22:14:47.225Z,4.60
2018-12-19T22:17:20.251Z,4.70
2018-12-19T22:19:47.767Z,4.70
2018-12-19T22:22:15.358Z,5.00
2018-12-19T22:24:42.840Z,5.30
2018-12-19T22:27:10.316Z,3.70
2018-12-19T22:29:37.915Z,5.50
2018-12-19T22:32:05.419Z,5.50
2018-12-19T22:34:33.111Z,5.60
2018-12-19T22:37:00.629Z,5.80
2018-12-19T22:39:28.228Z,5.80
2018-12-19T22:41:55.815Z,5.90
2018-12-19T22:44:23.301Z,6.10
2018-12-19T22:46:50.891Z,6.10
2018-12-19T22:49:18.569Z,6.20
2018-12-19T22:51:46.197Z,6.10
2018-12-19T22:54:13.785Z,6.00
2018-12-19T22:56:41.364Z,5.90
2018-12-19T22:59:09.127Z,5.80
2018-12-19T23:01:42.608Z,5.70
2018-12-19T23:04:10.178Z,5.70
2018-12-19T23:06:37.832Z,5.50
2018-12-19T23:09:06.251Z,5.40
2018-12-19T23:11:33.820Z,5.30
2018-12-19T23:14:01.336Z,5.20
2018-12-19T23:16:28.807Z,5.30
2018-12-19T23:18:56.308Z,5.10
2018-12-19T23:21:24.066Z,4.90
2018-12-19T23:23:51.531Z,4.80
2018-12-19T23:26:19.333Z,4.70
2018-12-19T23:28:46.966Z,4.60
2018-12-19T23:31:14.490Z,4.70
2018-12-19T23:33:42.089Z,4.90
2018-12-19T23:36:09.609Z,5.00
2018-12-19T23:38:37.460Z,4.90
2018-12-19T23:41:05.122Z,4.90
2018-12-19T23:43:32.702Z,5.30
2018-12-19T23:46:00.381Z,5.60
2018-12-19T23:48:28.044Z,5.60
2018-12-19T23:50:55.594Z,5.60
2018-12-19T23:53:23.129Z,5.60
2018-12-19T23:55:51.017Z,5.60
2018-12-19T23:58:18.595Z,5.70
